Main page
METAR-TAF:

METAR-TAF

Airports :

Ghriss Airport

Ghriss, Algeria

latitude: 35-12N, longitude: 000-08E, elevation: 514 m

Current weather observation

The report was made 40 minutes ago, at 21:00 UTC
Calm wind
Temperature 15°C
Humidity 94%
Pressure 1015 hPa
Visibility 10 km or more
Scattered clouds at a height of 2600 ft

METAR: DAOV 172100Z 00000KT 9999 SCT026 15/14 Q1015

Time: 22:40 (21:40 UTC)

Forecast

The report was made 4 hours and 40 minutes ago, at 17:00 UTC
Forecast valid from 17 at 18 UTC to 18 at 03 UTC
Wind 6 kt from the North
Visibility 10 km or more
Scattered clouds at a height of 2600 ft, Towering cumulus.
Scattered clouds at a height of 3000 ft
Temporary
from 17 at 19 UTC to 18 at 02 UTC
Visibility: 6000 m
Broken clouds at a height of 2000 ft
Scattered clouds at a height of 2600 ft, Cumulonimbus.
rain showers

TAF: DAOV 171700Z 1718/1803 01006KT 9999 SCT026TCU SCT030 TEMPO 1719/1802 6000 SHRA BKN020 SCT026CB

Weather observations and forecasts of more than 4000 airports (METAR and TAF reports).

The available stations are represented by yellow and red dots on the map.

Hover mouse over dot to see the name of the station.

Then click to see weather observations and forecasts.

To change the map : click on the green buttons with a black cross to zoom in, on the green button with a dash to zoom out, or on the green arrows for adjacent maps.


METAR-TAF: